This is the latest recevied weather packets stored in our database for station/object F5MAP-5. If no packets are shown the sender has not sent any weather packets the latest 1 day(s).
| Time | Temp. | Humidity | Pressure | Rain* | Wind** | Luminosity | Snow |
|---|---|---|---|---|---|---|---|
| 1777984930 | 20° C | 67% | 1008 hPa | 0 mm | 0 m/s | 573 W/m² | - |
| 1777984330 | 20° C | 69% | 1008 hPa | 0 mm | 1.79 m/s, 205° | 279 W/m² | - |
| 1777983731 | 19.44° C | 73% | 1008.1 hPa | 0 mm | 0.45 m/s, 13° | 1127 W/m² | - |
| 1777983199 | 18.33° C | 79% | 1008.2 hPa | 0 mm | 0.89 m/s, 190° | 879 W/m² | - |
| 1777983199 | 18.33° C | 79% | 1008.2 hPa | 0 mm | 0.89 m/s, 190° | 879 W/m² | - |
| 1777983130 | 18.33° C | 79% | 1008.2 hPa | 0 mm | 0.89 m/s, 190° | 879 W/m² | - |
| 1777982530 | 17.22° C | 83% | 1008.3 hPa | 0 mm | 0.89 m/s, 75° | 1032 W/m² | - |
| 1777981930 | 16.67° C | 84% | 1008.4 hPa | 0 mm | 1.34 m/s, 244° | 396 W/m² | - |
| 1777981330 | 16.67° C | 85% | 1008.6 hPa | 0 mm | 0.89 m/s, 284° | 446 W/m² | - |
| 1777980730 | 16.11° C | 86% | 1008.7 hPa | 0 mm | 0.89 m/s, 150° | 281 W/m² | - |
| 1777980130 | 16.11° C | 87% | 1008.8 hPa | 0 mm | 0.89 m/s, 179° | 234 W/m² | - |
| 1777979530 | 16.11° C | 88% | 1008.8 hPa | 0 mm | 0.45 m/s, 229° | 237 W/m² | - |
| 1777978930 | 16.11° C | 89% | 1008.9 hPa | 0 mm | 0.45 m/s, 266° | 211 W/m² | - |
| 1777978331 | 15.56° C | 90% | 1009 hPa | 0 mm | 0.89 m/s, 279° | 211 W/m² | - |
| 1777977730 | 15.56° C | 91% | 1009 hPa | 0 mm | 0.45 m/s, 192° | 225 W/m² | - |
| 1777977130 | 15.56° C | 92% | 1008.9 hPa | 0 mm | 0.45 m/s, 200° | 272 W/m² | - |
| 1777976530 | 15.56° C | 92% | 1009 hPa | 0 mm | 0.45 m/s, 193° | 186 W/m² | - |
| 1777975930 | 15.56° C | 93% | 1008.9 hPa | 0 mm | 1.34 m/s, 270° | 251 W/m² | - |
| 1777975330 | 15° C | 93% | 1008.9 hPa | 0 mm | 0 m/s | 308 W/m² | - |
| 1777974730 | 15° C | 93% | 1009 hPa | 0 mm | 0.89 m/s, 180° | 176 W/m² | - |
| 1777974130 | 15° C | 93% | 1009 hPa | 0 mm | 0.45 m/s, 210° | 181 W/m² | - |
| 1777973531 | 15° C | 93% | 1009 hPa | 0 mm | 0.45 m/s, 240° | 135 W/m² | - |
| 1777972936 | 15° C | 94% | 1009 hPa | 0 mm | 0 m/s | 146 W/m² | - |
| 1777972335 | 15° C | 94% | 1009.1 hPa | 0 mm | 0 m/s | 142 W/m² | - |
| 1777971736 | 14.44° C | 94% | 1009.1 hPa | 0 mm | 0 m/s | 137 W/m² | - |
* Rain latest hour (hover to see other rain measurements)
** Current wind speed in m/s (hover to see current wind gust speed)